createdAt,value
2022-11-04T00:00:33.322Z,91.60
2022-11-04T00:03:01.053Z,91.50
2022-11-04T00:05:30.940Z,91.60
2022-11-04T00:08:16.519Z,91.60
2022-11-04T00:11:02.410Z,91.60
2022-11-04T00:13:32.844Z,91.70
2022-11-04T00:16:21.860Z,91.70
2022-11-04T00:18:49.998Z,91.70
2022-11-04T00:21:55.811Z,91.80
2022-11-04T00:24:43.989Z,91.90
2022-11-04T00:27:35.158Z,91.90
2022-11-04T00:30:03.376Z,91.90
2022-11-04T00:32:51.686Z,92.00
2022-11-04T00:35:22.613Z,91.90
2022-11-04T00:37:49.748Z,92.00
2022-11-04T00:40:17.771Z,92.10
2022-11-04T00:42:48.049Z,92.00
2022-11-04T00:45:21.295Z,92.00
2022-11-04T00:47:55.290Z,92.00
2022-11-04T00:50:23.336Z,92.10
2022-11-04T00:52:51.132Z,92.10
2022-11-04T00:55:30.280Z,92.20
2022-11-04T00:57:59.202Z,92.20
2022-11-04T01:00:26.617Z,92.00
2022-11-04T01:02:53.904Z,92.00
2022-11-04T01:05:23.564Z,92.00
2022-11-04T01:07:52.675Z,91.90
2022-11-04T01:10:27.415Z,91.90
2022-11-04T01:12:54.913Z,91.90
2022-11-04T01:15:22.269Z,91.90
2022-11-04T01:17:50.138Z,91.90
2022-11-04T01:20:17.526Z,91.70
2022-11-04T01:22:48.150Z,91.70
2022-11-04T01:25:18.533Z,91.60
2022-11-04T01:27:50.361Z,91.60
2022-11-04T01:30:21.045Z,91.60
2022-11-04T01:32:50.955Z,92.00
2022-11-04T01:35:23.488Z,91.90
2022-11-04T01:37:50.875Z,91.90
2022-11-04T01:40:21.842Z,92.00
2022-11-04T01:42:50.118Z,92.30
2022-11-04T01:45:21.160Z,92.30
2022-11-04T01:48:00.190Z,92.30
2022-11-04T01:50:30.191Z,92.40
2022-11-04T01:53:20.668Z,92.30
2022-11-04T01:55:55.906Z,92.50
2022-11-04T01:58:27.673Z,92.40
2022-11-04T02:00:55.003Z,92.40
2022-11-04T02:03:30.276Z,92.30
2022-11-04T02:06:01.588Z,92.40
2022-11-04T02:08:30.336Z,92.50
2022-11-04T02:11:03.393Z,92.40
2022-11-04T02:13:36.369Z,92.50
2022-11-04T02:16:46.121Z,92.70
2022-11-04T02:19:21.160Z,92.60
2022-11-04T02:22:13.729Z,92.60
2022-11-04T02:25:04.130Z,92.70
2022-11-04T02:28:23.111Z,92.80
2022-11-04T02:31:12.910Z,92.70
2022-11-04T02:34:22.703Z,93.10
2022-11-04T02:37:19.421Z,93.00
2022-11-04T02:40:15.922Z,93.00
2022-11-04T02:42:56.211Z,92.90
2022-11-04T02:45:36.220Z,92.90
2022-11-04T02:48:22.100Z,92.80
2022-11-04T02:50:59.473Z,92.90
2022-11-04T02:53:47.485Z,93.10
2022-11-04T02:56:16.708Z,93.00
2022-11-04T02:58:58.904Z,92.90
2022-11-04T03:01:32.729Z,93.10
2022-11-04T03:04:07.768Z,92.90
2022-11-04T03:06:37.871Z,92.80
2022-11-04T03:09:06.279Z,92.80
2022-11-04T03:11:35.352Z,92.70
2022-11-04T03:14:21.233Z,92.70
2022-11-04T03:16:58.727Z,92.60
2022-11-04T03:19:40.634Z,92.50
2022-11-04T03:22:12.857Z,92.50
2022-11-04T03:24:52.668Z,92.40
2022-11-04T03:27:42.705Z,92.30
2022-11-04T03:30:22.026Z,92.40
2022-11-04T03:33:05.163Z,92.30
2022-11-04T03:35:33.056Z,92.20
2022-11-04T03:38:04.086Z,92.30
2022-11-04T03:40:31.637Z,92.40
2022-11-04T03:43:10.673Z,92.40
2022-11-04T03:45:42.003Z,92.40
2022-11-04T03:48:15.981Z,92.50
2022-11-04T03:50:54.871Z,92.50
2022-11-04T03:53:24.229Z,92.50
2022-11-04T03:56:28.663Z,92.50
2022-11-04T03:59:25.356Z,92.50
2022-11-04T04:01:58.515Z,93.00
2022-11-04T04:05:02.476Z,93.10
2022-11-04T04:07:40.099Z,93.10
2022-11-04T04:10:37.911Z,93.10
2022-11-04T04:13:38.226Z,93.30
2022-11-04T04:16:09.088Z,93.20
2022-11-04T04:19:00.770Z,93.10
2022-11-04T04:21:50.373Z,93.20
2022-11-04T04:24:39.107Z,93.40
2022-11-04T04:27:24.867Z,93.50
2022-11-04T04:29:57.959Z,93.50
2022-11-04T04:32:27.147Z,93.50
2022-11-04T04:35:14.974Z,93.40
2022-11-04T04:37:44.095Z,93.30
2022-11-04T04:40:34.226Z,93.30
2022-11-04T04:43:20.373Z,93.40
2022-11-04T04:45:58.624Z,93.40
2022-11-04T04:48:25.895Z,93.30
2022-11-04T04:50:56.996Z,93.50
2022-11-04T04:53:24.115Z,93.60
2022-11-04T04:55:51.432Z,93.70
2022-11-04T04:58:18.886Z,93.90
2022-11-04T05:00:46.358Z,93.90
2022-11-04T05:03:13.366Z,93.90
2022-11-04T05:05:40.552Z,94.10
2022-11-04T05:08:09.001Z,94.10
2022-11-04T05:10:36.545Z,94.00
2022-11-04T05:13:25.550Z,93.80
2022-11-04T05:15:55.731Z,93.90
2022-11-04T05:18:24.996Z,93.80
2022-11-04T05:20:52.326Z,93.80
2022-11-04T05:23:19.835Z,93.90
2022-11-04T05:25:47.478Z,94.00
2022-11-04T05:28:14.591Z,94.00
2022-11-04T05:30:42.429Z,94.00
2022-11-04T05:33:10.753Z,93.90
2022-11-04T05:35:39.175Z,94.00
2022-11-04T05:38:10.121Z,94.20
2022-11-04T05:40:43.436Z,94.20
2022-11-04T05:43:13.257Z,94.20
2022-11-04T05:45:44.375Z,94.40
2022-11-04T05:48:12.138Z,94.60
2022-11-04T05:50:44.017Z,94.30
2022-11-04T05:53:18.881Z,94.30
2022-11-04T05:55:51.785Z,94.40
2022-11-04T05:58:27.226Z,94.70
2022-11-04T06:01:00.755Z,94.80
2022-11-04T06:03:30.621Z,94.90
2022-11-04T06:06:02.560Z,94.70
2022-11-04T06:08:32.265Z,94.40
2022-11-04T06:11:00.450Z,94.40
2022-11-04T06:13:29.518Z,94.40
2022-11-04T06:15:57.621Z,94.50
2022-11-04T06:18:27.780Z,94.30
2022-11-04T06:21:20.980Z,94.40
2022-11-04T06:27:23.045Z,94.30
2022-11-04T06:29:54.280Z,94.30
2022-11-04T06:32:25.043Z,94.60
2022-11-04T06:34:58.856Z,94.30
2022-11-04T06:37:26.889Z,94.50
2022-11-04T06:39:54.695Z,94.30
2022-11-04T06:42:23.179Z,94.50
2022-11-04T06:44:53.068Z,94.20
2022-11-04T06:47:25.003Z,94.00
2022-11-04T06:50:15.835Z,94.00
2022-11-04T06:53:00.746Z,94.00
2022-11-04T06:55:31.696Z,94.10
2022-11-04T07:09:40.891Z,93.90
2022-11-04T07:12:25.788Z,94.00
2022-11-04T07:15:09.965Z,94.10
2022-11-04T07:17:47.206Z,94.00
2022-11-04T07:23:13.827Z,93.70
2022-11-04T07:25:47.590Z,93.50
2022-11-04T07:28:27.948Z,93.40
2022-11-04T07:31:01.603Z,92.70
2022-11-04T07:33:34.176Z,92.30
2022-11-04T07:36:10.975Z,92.40
2022-11-04T07:38:45.106Z,92.40
2022-11-04T07:41:17.633Z,92.20
2022-11-04T07:44:10.778Z,92.20
2022-11-04T07:46:50.495Z,91.50
2022-11-04T07:53:43.823Z,91.00
2022-11-04T08:04:26.340Z,90.20
2022-11-04T08:07:59.674Z,90.00
2022-11-04T08:10:33.139Z,89.90
2022-11-04T08:13:24.632Z,90.30
2022-11-04T08:16:40.810Z,90.20
2022-11-04T08:22:46.449Z,89.80
2022-11-04T08:25:14.209Z,89.50
2022-11-04T08:27:49.137Z,89.20
2022-11-04T08:30:28.088Z,89.10
2022-11-04T08:32:58.205Z,88.90
2022-11-04T08:35:28.876Z,88.60
2022-11-04T08:38:22.514Z,88.20
2022-11-04T08:41:57.381Z,87.90
2022-11-04T08:44:29.782Z,87.60
2022-11-04T08:53:18.165Z,85.20
2022-11-04T08:56:12.562Z,85.50
2022-11-04T08:58:45.863Z,85.30
2022-11-04T09:04:51.725Z,84.10
2022-11-04T09:07:19.292Z,82.90
2022-11-04T09:10:00.400Z,82.40
2022-11-04T09:12:36.114Z,82.10
2022-11-04T09:15:21.024Z,80.70
2022-11-04T09:18:04.141Z,78.90
2022-11-04T09:20:51.777Z,78.30
2022-11-04T09:23:23.503Z,78.90
2022-11-04T09:26:05.914Z,77.70
2022-11-04T09:28:39.326Z,78.00
2022-11-04T09:31:21.849Z,78.30
2022-11-04T09:34:06.543Z,78.20
2022-11-04T09:39:27.154Z,78.30
2022-11-04T09:42:53.827Z,78.80
2022-11-04T09:45:35.730Z,78.90
2022-11-04T09:48:54.702Z,79.10
2022-11-04T09:55:01.125Z,80.30
2022-11-04T09:57:39.725Z,79.70
2022-11-04T10:00:17.251Z,79.50
2022-11-04T10:06:30.997Z,78.80
2022-11-04T10:09:06.844Z,78.70
2022-11-04T10:16:08.566Z,78.80
2022-11-04T10:20:00.412Z,79.40
2022-11-04T10:33:34.343Z,78.10
2022-11-04T10:36:28.730Z,76.60
2022-11-04T10:38:58.315Z,76.20
2022-11-04T10:41:35.737Z,76.60
2022-11-04T10:44:23.021Z,77.40
2022-11-04T10:47:26.158Z,78.40
2022-11-04T10:50:32.027Z,79.00
2022-11-04T10:53:14.138Z,79.10
2022-11-04T10:56:22.888Z,79.50
2022-11-04T10:59:04.223Z,79.40
2022-11-04T11:01:35.867Z,79.90
2022-11-04T11:04:11.064Z,79.80
2022-11-04T11:06:41.995Z,79.80
2022-11-04T11:09:18.946Z,79.40
2022-11-04T11:11:51.739Z,79.60
2022-11-04T11:14:30.680Z,78.70
2022-11-04T11:17:19.116Z,77.60
2022-11-04T11:19:51.489Z,77.40
2022-11-04T11:22:39.621Z,78.00
2022-11-04T11:25:23.889Z,78.10
2022-11-04T11:28:00.484Z,78.10
2022-11-04T11:30:32.478Z,78.70
2022-11-04T11:33:11.162Z,78.80
2022-11-04T11:35:43.786Z,79.30
2022-11-04T11:38:37.656Z,79.70
2022-11-04T11:41:28.715Z,79.90
2022-11-04T11:44:01.223Z,80.10
2022-11-04T11:46:35.008Z,80.30
2022-11-04T11:49:04.761Z,80.40
2022-11-04T11:51:36.388Z,80.60
2022-11-04T11:54:17.636Z,80.20
2022-11-04T12:03:16.064Z,79.80
2022-11-04T12:06:18.250Z,80.00
2022-11-04T12:11:51.012Z,78.90
2022-11-04T12:14:33.161Z,77.90
2022-11-04T12:17:20.737Z,77.80
2022-11-04T12:19:57.256Z,78.10
2022-11-04T12:22:40.705Z,78.50
2022-11-04T12:25:49.525Z,78.90
2022-11-04T12:28:52.106Z,79.00
2022-11-04T12:31:19.618Z,79.40
2022-11-04T12:33:53.455Z,79.20
2022-11-04T12:36:47.690Z,79.30
2022-11-04T12:39:35.180Z,79.60
2022-11-04T12:42:32.630Z,79.70
2022-11-04T12:45:27.381Z,79.60
2022-11-04T12:48:04.354Z,79.80
2022-11-04T12:51:02.383Z,79.70
2022-11-04T12:53:29.407Z,79.80
2022-11-04T12:56:12.454Z,80.20
2022-11-04T12:58:45.557Z,80.60
2022-11-04T13:01:27.147Z,80.80
2022-11-04T13:04:24.705Z,81.40
2022-11-04T13:07:17.512Z,82.00
2022-11-04T13:09:57.117Z,82.10
2022-11-04T13:12:35.506Z,82.50
2022-11-04T13:15:16.308Z,82.70
2022-11-04T13:17:46.465Z,82.80
2022-11-04T13:20:25.049Z,82.80
2022-11-04T13:22:56.717Z,82.90
2022-11-04T13:25:42.114Z,83.20
2022-11-04T13:28:28.358Z,83.30
2022-11-04T13:31:31.154Z,83.40
2022-11-04T13:34:23.099Z,83.60
2022-11-04T13:37:28.559Z,83.80
2022-11-04T13:40:00.978Z,84.30
2022-11-04T13:42:40.335Z,84.20
2022-11-04T13:45:26.017Z,84.40
2022-11-04T13:47:58.911Z,84.30
2022-11-04T13:50:43.443Z,84.60
2022-11-04T13:53:12.468Z,84.90
2022-11-04T13:55:54.793Z,85.20
2022-11-04T13:58:29.494Z,85.40
2022-11-04T14:01:12.191Z,85.50
2022-11-04T14:03:53.911Z,85.80
2022-11-04T14:06:45.967Z,85.90
2022-11-04T14:09:36.029Z,85.70
2022-11-04T14:12:15.032Z,85.40
2022-11-04T14:15:03.894Z,85.40
2022-11-04T14:17:33.961Z,85.30
2022-11-04T14:20:25.296Z,85.30
2022-11-04T14:23:22.704Z,85.40
2022-11-04T14:26:01.841Z,85.60
2022-11-04T14:28:30.435Z,85.60
2022-11-04T14:31:01.908Z,85.80
2022-11-04T14:33:50.064Z,85.90
2022-11-04T14:36:32.892Z,85.80
2022-11-04T14:39:06.175Z,85.90
2022-11-04T14:41:53.804Z,86.00
2022-11-04T14:44:28.445Z,86.20
2022-11-04T14:47:16.648Z,86.40
2022-11-04T14:49:49.491Z,86.50
2022-11-04T14:52:40.136Z,86.80
2022-11-04T14:55:13.453Z,87.20
2022-11-04T14:57:43.567Z,87.30
2022-11-04T15:00:32.407Z,87.60
2022-11-04T15:06:11.713Z,88.30
2022-11-04T15:08:41.573Z,88.50
2022-11-04T15:11:17.253Z,88.80
2022-11-04T15:13:47.795Z,88.80
2022-11-04T15:16:27.132Z,88.90
2022-11-04T15:18:56.709Z,88.90
2022-11-04T15:21:24.657Z,89.00
2022-11-04T15:23:54.474Z,89.00
2022-11-04T15:26:30.688Z,89.00
2022-11-04T15:29:10.546Z,89.00
2022-11-04T15:31:39.973Z,89.20
2022-11-04T15:34:14.216Z,89.20
2022-11-04T15:36:44.515Z,89.20
2022-11-04T15:39:25.854Z,89.20
2022-11-04T15:42:19.644Z,89.20
2022-11-04T15:44:52.525Z,89.40
2022-11-04T15:47:20.290Z,89.40
2022-11-04T15:49:52.187Z,89.50
2022-11-04T15:52:27.935Z,89.50
2022-11-04T15:55:01.385Z,89.70
2022-11-04T15:57:38.428Z,89.80
2022-11-04T16:00:25.060Z,89.90
2022-11-04T16:03:00.904Z,90.20
2022-11-04T16:05:30.147Z,90.40
2022-11-04T16:08:24.023Z,90.40
2022-11-04T16:11:07.800Z,90.40
2022-11-04T16:13:34.955Z,90.30
2022-11-04T16:16:03.017Z,90.50
2022-11-04T16:18:43.297Z,90.60
2022-11-04T16:21:26.851Z,90.40
2022-11-04T16:24:26.092Z,90.30
2022-11-04T16:26:57.232Z,90.50
2022-11-04T16:29:30.961Z,90.40
2022-11-04T16:32:18.737Z,90.30
2022-11-04T16:34:48.698Z,90.20
2022-11-04T16:37:16.024Z,90.20
2022-11-04T16:39:45.304Z,90.10
2022-11-04T16:42:14.586Z,90.10
2022-11-04T16:44:47.360Z,89.90
2022-11-04T16:47:18.008Z,90.10
2022-11-04T16:49:45.269Z,90.00
2022-11-04T16:52:28.209Z,89.80
2022-11-04T16:54:56.607Z,89.70
2022-11-04T16:57:25.643Z,89.50
2022-11-04T16:59:53.610Z,89.40
2022-11-04T17:02:25.172Z,89.20
2022-11-04T17:04:52.422Z,89.30
2022-11-04T17:07:19.763Z,89.10
2022-11-04T17:09:46.790Z,88.80
2022-11-04T17:12:20.192Z,88.70
2022-11-04T17:14:47.680Z,88.50
2022-11-04T17:17:14.896Z,88.40
2022-11-04T17:19:42.666Z,88.40
2022-11-04T17:22:11.634Z,88.60
2022-11-04T17:24:38.900Z,88.40
2022-11-04T17:27:09.549Z,88.60
2022-11-04T17:29:37.693Z,88.70
2022-11-04T17:32:05.246Z,88.60
2022-11-04T17:34:34.756Z,88.70
2022-11-04T17:37:02.957Z,89.10
2022-11-04T17:39:30.080Z,89.10
2022-11-04T17:42:15.906Z,89.20
2022-11-04T17:44:42.863Z,89.40
2022-11-04T17:47:12.734Z,89.80
2022-11-04T17:49:40.655Z,90.00
2022-11-04T17:52:08.681Z,89.90
2022-11-04T17:54:35.805Z,90.00
2022-11-04T17:57:03.840Z,90.00
2022-11-04T17:59:36.694Z,90.00
2022-11-04T18:02:10.150Z,90.10
2022-11-04T18:04:37.793Z,90.00
2022-11-04T18:07:04.952Z,90.10
2022-11-04T18:09:34.005Z,90.00
2022-11-04T18:12:19.765Z,90.00
2022-11-04T18:14:50.073Z,90.00
2022-11-04T18:17:17.358Z,89.90
2022-11-04T18:19:45.431Z,89.90
2022-11-04T18:22:12.546Z,89.90
2022-11-04T18:24:39.902Z,89.90
2022-11-04T18:27:07.901Z,89.80
2022-11-04T18:29:35.245Z,89.90
2022-11-04T18:32:02.535Z,89.70
2022-11-04T18:34:32.980Z,89.90
2022-11-04T18:37:00.931Z,89.70
2022-11-04T18:39:28.217Z,89.90
2022-11-04T18:41:57.548Z,90.00
2022-11-04T18:44:24.716Z,90.10
2022-11-04T18:46:51.774Z,90.50
2022-11-04T18:49:20.760Z,90.70
2022-11-04T18:51:48.159Z,90.70
2022-11-04T18:54:15.477Z,91.20
2022-11-04T18:56:44.053Z,91.40
2022-11-04T18:59:15.495Z,91.50
2022-11-04T19:01:43.363Z,91.80
2022-11-04T19:04:10.914Z,91.80
2022-11-04T19:06:41.801Z,92.20
2022-11-04T19:09:40.674Z,92.30
2022-11-04T19:12:24.345Z,92.60
2022-11-04T19:14:51.968Z,92.80
2022-11-04T19:17:19.159Z,93.00
2022-11-04T19:19:46.329Z,93.30
2022-11-04T19:22:13.602Z,93.50
2022-11-04T19:24:40.942Z,93.60
2022-11-04T19:27:08.372Z,93.70
2022-11-04T19:29:35.454Z,93.80
2022-11-04T19:32:02.580Z,93.90
2022-11-04T19:34:29.976Z,94.10
2022-11-04T19:36:57.126Z,94.10
2022-11-04T19:39:24.161Z,94.00
2022-11-04T19:42:09.715Z,94.00
2022-11-04T19:44:36.931Z,93.90
2022-11-04T19:47:04.346Z,93.90
2022-11-04T19:49:31.724Z,94.10
2022-11-04T19:51:59.637Z,94.30
2022-11-04T19:54:28.604Z,94.50
2022-11-04T19:56:57.727Z,94.60
2022-11-04T19:59:25.769Z,94.80
2022-11-04T20:01:53.232Z,95.00
2022-11-04T20:04:23.557Z,95.00
2022-11-04T20:06:53.219Z,95.10
2022-11-04T20:09:22.505Z,95.10
2022-11-04T20:12:08.235Z,95.30
2022-11-04T20:14:35.454Z,95.40
2022-11-04T20:17:02.808Z,95.50
2022-11-04T20:19:29.916Z,95.50
2022-11-04T20:21:57.134Z,95.50
2022-11-04T20:24:25.341Z,95.70
2022-11-04T20:26:52.514Z,95.70
2022-11-04T20:29:19.599Z,95.80
2022-11-04T20:31:46.662Z,95.60
2022-11-04T20:34:14.791Z,95.90
2022-11-04T20:36:42.491Z,96.00
2022-11-04T20:39:15.913Z,96.00
2022-11-04T20:41:44.399Z,96.20
2022-11-04T20:44:13.199Z,96.10
2022-11-04T20:46:42.687Z,96.10
2022-11-04T20:49:10.571Z,96.20
2022-11-04T20:51:48.638Z,96.50
2022-11-04T20:54:21.343Z,96.60
2022-11-04T20:56:48.453Z,96.50
2022-11-04T20:59:16.977Z,96.50
2022-11-04T21:01:46.440Z,96.50
2022-11-04T21:04:19.106Z,96.70
2022-11-04T21:06:50.951Z,96.70
2022-11-04T21:09:20.643Z,96.80
2022-11-04T21:11:49.056Z,96.80
2022-11-04T21:14:19.666Z,96.80
2022-11-04T21:16:47.667Z,96.80
2022-11-04T21:19:16.095Z,96.80
2022-11-04T21:21:45.136Z,96.80
2022-11-04T21:24:13.629Z,96.90
2022-11-04T21:26:41.137Z,96.80
2022-11-04T21:29:11.434Z,96.90
2022-11-04T21:31:39.019Z,97.10
2022-11-04T21:34:06.576Z,97.00
2022-11-04T21:36:33.915Z,97.10
2022-11-04T21:39:01.698Z,97.10
2022-11-04T21:41:33.409Z,97.10
2022-11-04T21:44:02.122Z,96.80
2022-11-04T21:46:31.289Z,96.80
2022-11-04T21:48:59.239Z,96.90
2022-11-04T21:51:31.811Z,96.80
2022-11-04T21:54:01.943Z,96.70
2022-11-04T21:56:33.196Z,96.70
2022-11-04T21:59:00.886Z,96.80
2022-11-04T22:01:29.774Z,96.80
2022-11-04T22:03:59.717Z,96.80
2022-11-04T22:06:33.943Z,96.80
2022-11-04T22:09:02.165Z,96.90
2022-11-04T22:11:31.701Z,96.80
2022-11-04T22:14:01.565Z,96.60
2022-11-04T22:16:30.685Z,96.50
2022-11-04T22:19:00.550Z,96.60
2022-11-04T22:21:29.030Z,96.50
2022-11-04T22:23:56.872Z,96.60
2022-11-04T22:26:26.224Z,96.60
2022-11-04T22:28:54.003Z,96.50
2022-11-04T22:31:23.026Z,96.50
2022-11-04T22:33:51.498Z,96.40
2022-11-04T22:36:19.201Z,96.40
2022-11-04T22:38:47.185Z,96.50
2022-11-04T22:41:17.775Z,96.70
2022-11-04T22:43:44.946Z,96.20
2022-11-04T22:46:22.522Z,95.90
2022-11-04T22:48:49.583Z,95.70
2022-11-04T22:51:17.347Z,95.60
2022-11-04T22:53:45.072Z,95.40
2022-11-04T22:56:14.531Z,95.30
2022-11-04T22:58:41.675Z,95.60
2022-11-04T23:01:12.677Z,95.50
2022-11-04T23:03:40.055Z,95.20
2022-11-04T23:06:09.037Z,95.10
2022-11-04T23:08:37.828Z,95.10
2022-11-04T23:11:28.135Z,95.10
2022-11-04T23:14:20.908Z,95.00
2022-11-04T23:17:09.224Z,95.00
2022-11-04T23:19:39.927Z,95.10
2022-11-04T23:22:26.558Z,94.80
2022-11-04T23:25:07.338Z,94.80
2022-11-04T23:28:00.255Z,94.80
2022-11-04T23:30:36.600Z,94.90
2022-11-04T23:33:08.258Z,94.90
2022-11-04T23:35:55.512Z,95.00
2022-11-04T23:38:23.693Z,94.80
2022-11-04T23:41:13.473Z,94.80
2022-11-04T23:43:40.806Z,94.80
2022-11-04T23:46:26.687Z,94.80
2022-11-04T23:49:12.646Z,94.70
2022-11-04T23:51:58.865Z,94.80
2022-11-04T23:57:44.403Z,95.00
